Date,TemperatureHighF,TemperatureAvgF,TemperatureLowF,DewpointHighF,DewpointAvgF,DewpointLowF,HumidityHigh,HumidityAvg,HumidityLow,PressureMaxIn,PressureMinIn,WindSpeedMaxMPH,WindSpeedAvgMPH,GustSpeedMaxMPH,PrecipitationSumIn
2013-4-1,50,40,35,29,26,24,72,57,42,30.06,29.99,4,0,5,0.00
2013-4-2,54,41,31,37,30,23,84,65,47,30.20,30.06,6,0,9,0.00
2013-4-3,66,44,31,41,30,26,91,62,31,30.27,30.21,5,0,5,0.00
2013-4-4,62,44,34,37,34,30,88,70,33,30.25,30.18,14,2,15,0.02
2013-4-5,49,40,29,36,29,24,85,65,50,30.22,30.18,8,2,13,0.00
2013-4-6,54,40,26,40,31,23,91,72,46,30.22,30.11,13,4,36,0.00
2013-4-7,40,38,36,36,35,33,90,88,82,30.15,29.97,4,0,8,0.12
2013-4-8,56,43,36,36,32,27,88,67,44,29.97,29.73,5,0,6,0.00
2013-4-9,61,44,36,35,31,26,81,61,35,29.73,29.65,10,1,10,0.00
2013-4-10,48,41,38,39,36,32,91,82,69,29.68,29.58,4,0,6,0.00
2013-4-11,54,43,38,41,37,33,91,79,57,29.57,29.40,2,0,7,0.00
2013-4-12,56,44,38,43,37,34,86,77,59,29.60,29.37,0,0,2,0.00
2013-4-13,68,47,37,49,40,34,91,79,48,29.71,29.44,6,0,7,0.02
2013-4-14,59,52,47,49,46,43,90,80,63,29.46,29.35,29,14,97,0.02
2013-4-15,60,51,47,48,44,42,92,79,55,29.70,29.40,31,13,36,0.12
2013-4-16,56,50,45,44,41,36,93,73,48,29.73,29.32,40,17,45,0.04
2013-4-17,52,46,39,48,42,35,91,85,71,29.80,29.07,24,8,32,0.18
2013-4-18,56,49,41,44,41,36,91,76,60,29.83,29.01,26,13,31,0.02
2013-4-19,65,48,37,42,37,33,86,67,36,30.37,29.84,7,1,10,0.00
2013-4-20,59,48,36,44,39,33,92,74,54,30.37,30.08,165,10,165,0.00
2013-4-21,57,48,44,44,41,38,85,76,56,30.08,29.76,21,10,22,0.00
2013-4-22,60,49,42,47,41,38,89,76,50,29.78,29.48,34,12,34,0.00
2013-4-23,62,52,45,43,40,36,89,66,42,29.97,29.63,20,10,23,0.00
2013-4-24,67,51,45,51,42,34,93,72,40,30.14,29.81,9,1,12,0.24
2013-4-25,56,47,41,44,39,34,86,75,54,30.14,29.93,19,5,19,0.00
2013-4-26,55,43,36,45,36,32,89,78,53,29.97,29.79,15,3,19,0.26
2013-4-27,62,48,36,39,34,28,90,63,31,30.06,29.87,12,2,15,0.00
2013-4-28,59,48,41,44,39,34,86,71,47,29.87,29.50,24,14,107,0.00
2013-4-29,60,49,41,40,35,32,84,61,35,30.01,29.51,21,9,179,0.00
2013-4-30,64,49,35,41,36,30,84,63,37,30.25,30.02,13,2,16,0.00